Time;durP1;ratioP1;P1;durP2;ratioP2;P2;SDS_P1;SDS_P2;PMS_P1;PMS_P2;Temp;Humidity;BMP_temperature;BMP_pressure;BME280_temperature;BME280_humidity;BME280_pressure;Samples;Min_cycle;Max_cycle;Signal;HPM_P1;HPM_P2
2021/09/05 00:01:52;;;;;;;17.83;9.13;;;16.80;79.20;;;;;;5014409;28;20042;-80
2021/09/05 00:04:18;;;;;;;14.95;8.25;;;16.70;79.30;;;;;;4998195;28;20060;-81
2021/09/05 00:06:44;;;;;;;17.77;8.27;;;16.70;79.40;;;;;;5015417;28;20466;-81
2021/09/05 00:09:09;;;;;;;17.85;8.90;;;16.70;79.50;;;;;;5014132;28;20105;-80
2021/09/05 00:11:35;;;;;;;17.67;10.00;;;16.70;80.30;;;;;;5014147;28;20034;-80
2021/09/05 00:14:01;;;;;;;15.60;8.52;;;16.60;79.50;;;;;;5014077;28;20042;-79
2021/09/05 00:16:27;;;;;;;16.73;8.55;;;16.60;79.60;;;;;;5013955;28;20056;-80
2021/09/05 00:18:52;;;;;;;16.27;9.40;;;16.60;79.70;;;;;;5015662;28;20034;-81
2021/09/05 00:21:18;;;;;;;21.13;9.60;;;16.60;79.90;;;;;;5015185;28;20053;-82
2021/09/05 00:23:44;;;;;;;16.77;9.35;;;16.60;80.00;;;;;;5030728;28;20402;-81
2021/09/05 00:26:10;;;;;;;16.88;8.65;;;16.50;80.00;;;;;;5014337;28;20060;-80
2021/09/05 00:28:36;;;;;;;20.85;10.02;;;16.50;80.10;;;;;;5015296;28;20022;-81
2021/09/05 00:31:02;;;;;;;20.10;10.30;;;16.50;80.00;;;;;;5015302;28;20084;-80
2021/09/05 00:33:28;;;;;;;19.05;9.63;;;16.50;80.20;;;;;;5030306;28;20077;-80
2021/09/05 00:35:53;;;;;;;16.70;9.80;;;16.50;80.20;;;;;;5013959;28;20053;-84
2021/09/05 00:38:19;;;;;;;16.33;8.95;;;16.40;80.10;;;;;;5014100;28;20033;-81
2021/09/05 00:40:45;;;;;;;18.30;9.13;;;16.40;80.10;;;;;;5014310;28;20040;-84
2021/09/05 00:43:11;;;;;;;18.70;9.23;;;16.30;80.10;;;;;;5014337;28;20474;-81
2021/09/05 00:45:36;;;;;;;15.82;8.32;;;16.30;80.30;;;;;;5013823;28;20084;-81
2021/09/05 00:48:02;;;;;;;18.65;9.18;;;16.30;80.40;;;;;;5005904;28;20034;-81
2021/09/05 00:50:29;;;;;;;15.45;8.65;;;16.30;80.40;;;;;;5014984;28;20030;-81
2021/09/05 00:52:55;;;;;;;16.55;8.90;;;16.30;80.50;;;;;;5013633;28;20426;-83
2021/09/05 00:55:22;;;;;;;18.33;9.45;;;16.20;80.60;;;;;;5013395;28;20060;-82
2021/09/05 00:57:47;;;;;;;21.38;9.52;;;16.20;80.60;;;;;;5014789;28;20033;-84
2021/09/05 01:00:14;;;;;;;22.67;9.68;;;16.20;80.70;;;;;;5013349;28;20029;-80
2021/09/05 01:02:40;;;;;;;18.13;9.38;;;16.20;80.80;;;;;;5013146;28;20424;-81
2021/09/05 01:05:06;;;;;;;16.08;9.23;;;16.20;80.90;;;;;;4996814;28;20375;-82
2021/09/05 01:07:33;;;;;;;17.83;9.27;;;16.10;81.00;;;;;;5014544;28;20080;-79
2021/09/05 01:09:59;;;;;;;18.75;8.98;;;16.10;81.10;;;;;;5013341;28;20029;-84
2021/09/05 01:12:26;;;;;;;15.57;9.07;;;16.10;81.00;;;;;;4980779;28;20509;-82
2021/09/05 01:14:52;;;;;;;19.60;8.75;;;16.10;81.00;;;;;;5013298;28;20496;-81
2021/09/05 01:17:18;;;;;;;15.98;8.68;;;16.00;81.00;;;;;;5013142;28;20596;-85
2021/09/05 01:19:44;;;;;;;17.13;9.52;;;16.00;81.70;;;;;;5012786;28;20155;-82
2021/09/05 01:22:10;;;;;;;16.48;9.18;;;16.00;81.20;;;;;;4996626;28;20040;-82
2021/09/05 01:24:35;;;;;;;18.70;8.85;;;16.00;81.30;;;;;;5014504;28;20034;-82
2021/09/05 01:27:01;;;;;;;16.05;9.23;;;15.90;81.20;;;;;;4996746;28;20030;-85
2021/09/05 01:29:27;;;;;;;18.13;9.05;;;15.90;81.30;;;;;;5012852;28;20120;-82
2021/09/05 01:31:54;;;;;;;18.23;8.73;;;15.90;81.40;;;;;;4980389;28;20117;-81
2021/09/05 01:34:22;;;;;;;12.98;7.55;;;15.90;81.60;;;;;;5012919;28;20076;-82
2021/09/05 01:36:50;;;;;;;19.63;8.35;;;15.90;81.60;;;;;;5014678;28;20051;-81
2021/09/05 01:39:17;;;;;;;17.25;8.57;;;15.80;81.60;;;;;;5013984;28;20025;-82
2021/09/05 01:41:44;;;;;;;17.67;8.85;;;15.80;81.60;;;;;;4996677;28;20475;-81
2021/09/05 01:44:12;;;;;;;15.40;8.65;;;15.80;81.60;;;;;;5013129;28;20433;-82
2021/09/05 01:46:38;;;;;;;17.30;7.63;;;15.80;81.80;;;;;;5014359;28;20033;-83
2021/09/05 01:49:04;;;;;;;19.15;8.95;;;15.80;82.40;;;;;;5028390;28;20029;-82
2021/09/05 01:51:30;;;;;;;16.02;8.95;;;15.70;81.90;;;;;;5014037;28;20030;-82
2021/09/05 01:53:57;;;;;;;15.35;8.13;;;15.70;81.90;;;;;;5012995;28;20079;-82
2021/09/05 01:56:23;;;;;;;15.10;8.25;;;15.70;82.10;;;;;;5012722;28;20033;-81
2021/09/05 01:58:49;;;;;;;16.10;8.50;;;15.60;82.10;;;;;;4996196;28;20520;-82
2021/09/05 02:01:15;;;;;;;19.50;8.48;;;15.60;82.10;;;;;;5012571;28;20033;-88
2021/09/05 02:03:40;;;;;;;17.80;8.90;;;15.60;82.20;;;;;;4996095;28;20068;-81
2021/09/05 02:06:06;;;;;;;17.13;9.02;;;15.60;82.30;;;;;;5012400;28;20026;-80
2021/09/05 02:08:31;;;;;;;18.27;8.63;;;15.60;82.30;;;;;;4995999;28;20391;-82
2021/09/05 02:10:57;;;;;;;19.65;9.05;;;15.50;82.40;;;;;;5012248;28;20072;-84
2021/09/05 02:13:23;;;;;;;16.75;9.02;;;15.50;82.60;;;;;;4996118;28;20022;-80
2021/09/05 02:15:49;;;;;;;21.55;9.95;;;15.40;82.50;;;;;;5013527;28;20038;-83
2021/09/05 02:18:15;;;;;;;17.75;8.45;;;15.50;82.80;;;;;;5014085;28;20467;-81
2021/09/05 02:20:40;;;;;;;18.40;8.88;;;15.50;82.80;;;;;;5013405;28;20045;-82
2021/09/05 02:23:06;;;;;;;19.55;8.90;;;15.40;82.80;;;;;;5013601;28;20041;-80
2021/09/05 02:25:32;;;;;;;14.63;9.07;;;15.40;82.70;;;;;;4995681;28;20077;-79
2021/09/05 02:27:57;;;;;;;17.13;9.60;;;15.40;82.80;;;;;;5012479;28;20030;-81
2021/09/05 02:30:23;;;;;;;20.33;8.32;;;15.40;83.00;;;;;;4979803;28;20118;-81
2021/09/05 02:32:48;;;;;;;19.67;8.95;;;15.30;83.10;;;;;;5012749;28;20445;-81
2021/09/05 02:35:14;;;;;;;18.60;9.00;;;15.30;83.10;;;;;;5012591;28;20034;-81
2021/09/05 02:37:40;;;;;;;16.40;9.50;;;15.30;83.90;;;;;;5013425;28;20030;-81
2021/09/05 02:40:07;;;;;;;17.10;9.45;;;15.30;83.40;;;;;;5013461;28;20037;-85
2021/09/05 02:42:34;;;;;;;16.23;7.50;;;15.30;83.40;;;;;;5012074;28;20041;-82
2021/09/05 02:45:04;;;;;;;15.75;8.20;;;15.30;83.40;;;;;;4995710;28;20030;-81
2021/09/05 02:47:31;;;;;;;17.30;7.95;;;15.20;83.40;;;;;;5011903;28;20040;-83
2021/09/05 02:49:56;;;;;;;15.27;8.25;;;15.20;83.40;;;;;;5012088;28;20088;-80
2021/09/05 02:52:23;;;;;;;18.73;8.93;;;15.20;83.40;;;;;;4995588;28;20413;-81
2021/09/05 02:54:48;;;;;;;18.52;8.82;;;15.20;83.50;;;;;;5011730;28;20412;-81
2021/09/05 02:57:14;;;;;;;16.92;8.23;;;15.20;84.20;;;;;;5015898;28;20038;-81
2021/09/05 02:59:40;;;;;;;18.73;8.20;;;15.20;83.60;;;;;;5015666;28;20044;-82
2021/09/05 03:02:05;;;;;;;20.13;8.75;;;15.10;83.70;;;;;;4999519;28;20120;-82
2021/09/05 03:04:31;;;;;;;17.52;8.50;;;15.10;83.70;;;;;;5015759;28;20037;-81
2021/09/05 03:06:57;;;;;;;17.17;8.05;;;15.10;83.70;;;;;;5016747;28;20030;-82
2021/09/05 03:09:23;;;;;;;16.92;9.45;;;15.10;83.80;;;;;;5015390;28;20022;-81
2021/09/05 03:11:49;;;;;;;17.52;8.88;;;15.10;83.80;;;;;;5015251;28;20025;-81
2021/09/05 03:14:14;;;;;;;18.73;8.63;;;15.10;84.00;;;;;;5016593;28;20030;-81
2021/09/05 03:16:40;;;;;;;19.27;8.73;;;15.10;83.90;;;;;;4998879;28;20037;-83
2021/09/05 03:19:06;;;;;;;16.48;8.90;;;15.10;84.30;;;;;;5015132;28;20600;-81
2021/09/05 03:21:31;;;;;;;17.52;8.48;;;15.00;84.20;;;;;;5015110;28;20073;-81
2021/09/05 03:23:57;;;;;;;17.83;9.15;;;15.10;84.30;;;;;;5016267;28;20033;-81
2021/09/05 03:26:23;;;;;;;17.38;8.95;;;15.00;84.30;;;;;;5016661;28;20034;-81
2021/09/05 03:28:48;;;;;;;16.02;8.05;;;15.00;84.40;;;;;;5014825;28;20385;-82
2021/09/05 03:31:14;;;;;;;16.77;8.90;;;15.00;84.60;;;;;;4998631;28;20029;-81
2021/09/05 03:33:40;;;;;;;23.88;9.27;;;15.00;84.70;;;;;;5014782;28;20038;-80
2021/09/05 03:36:05;;;;;;;20.00;9.00;;;15.00;84.70;;;;;;4982270;28;20445;-81
2021/09/05 03:38:32;;;;;;;22.92;8.90;;;14.90;84.60;;;;;;5015359;28;20393;-81
2021/09/05 03:40:57;;;;;;;14.23;8.15;;;14.90;84.70;;;;;;5014786;28;20029;-81
2021/09/05 03:43:24;;;;;;;18.38;9.20;;;14.90;84.70;;;;;;5016101;28;20038;-81
2021/09/05 03:45:49;;;;;;;16.73;8.10;;;14.90;84.70;;;;;;5015750;28;20109;-81
2021/09/05 03:48:16;;;;;;;16.40;8.27;;;14.80;84.70;;;;;;5015797;28;20064;-79
2021/09/05 03:50:41;;;;;;;17.55;8.32;;;14.80;84.70;;;;;;5014363;28;20022;-81
2021/09/05 03:53:07;;;;;;;13.57;8.23;;;14.80;84.80;;;;;;5015719;28;20075;-82
2021/09/05 03:55:32;;;;;;;22.80;9.70;;;14.80;84.80;;;;;;5014540;28;20030;-82
2021/09/05 03:57:58;;;;;;;15.90;8.40;;;14.70;84.80;;;;;;5014532;28;20505;-81
2021/09/05 04:00:24;;;;;;;19.90;9.57;;;14.80;85.10;;;;;;5015583;28;20037;-81
2021/09/05 04:02:50;;;;;;;15.80;7.63;;;14.70;85.10;;;;;;5015573;28;20033;-81
2021/09/05 04:05:16;;;;;;;19.08;9.10;;;14.60;85.10;;;;;;5014101;28;20062;-81
2021/09/05 04:08:01;;;;;;;17.92;9.00;;;14.60;85.10;;;;;;5014720;28;20028;-80
2021/09/05 04:10:27;;;;;;;16.00;8.48;;;14.60;85.30;;;;;;5015503;28;20470;-82
2021/09/05 04:12:53;;;;;;;16.77;8.40;;;14.60;85.70;;;;;;4981940;28;20029;-80
2021/09/05 04:15:18;;;;;;;16.23;8.90;;;14.50;85.60;;;;;;5007480;28;20470;-81
2021/09/05 04:17:44;;;;;;;18.02;9.27;;;14.50;85.60;;;;;;5013694;28;20431;-80
2021/09/05 04:20:10;;;;;;;18.05;8.52;;;14.50;85.90;;;;;;4997547;28;20453;-81
2021/09/05 04:22:36;;;;;;;19.13;8.88;;;14.40;86.00;;;;;;5030317;28;20030;-81
2021/09/05 04:25:03;;;;;;;16.92;8.73;;;14.40;86.10;;;;;;5013668;28;20037;-81
2021/09/05 04:27:29;;;;;;;21.30;8.15;;;14.40;86.10;;;;;;5030272;28;20034;-80
2021/09/05 04:29:54;;;;;;;15.85;8.55;;;14.40;86.10;;;;;;5013665;28;20026;-81
2021/09/05 04:32:21;;;;;;;20.90;8.38;;;14.40;86.10;;;;;;5030071;28;20026;-80
2021/09/05 04:34:48;;;;;;;18.08;8.38;;;14.30;86.00;;;;;;5015332;28;20021;-80
2021/09/05 04:37:13;;;;;;;17.10;8.48;;;14.30;86.00;;;;;;5030452;28;20034;-82
2021/09/05 04:39:39;;;;;;;16.20;8.80;;;14.30;86.20;;;;;;5013669;28;20041;-81
2021/09/05 04:42:05;;;;;;;20.75;9.38;;;14.20;86.20;;;;;;5030132;28;20490;-81
2021/09/05 04:44:30;;;;;;;16.52;8.80;;;14.20;86.30;;;;;;4997175;28;20026;-83
2021/09/05 04:46:56;;;;;;;20.70;9.13;;;14.10;86.30;;;;;;5013650;28;20032;-80
2021/09/05 04:49:21;;;;;;;15.65;8.55;;;14.10;86.40;;;;;;5030204;28;20029;-81
2021/09/05 04:51:47;;;;;;;17.70;8.95;;;14.10;86.50;;;;;;5013446;28;20033;-80
2021/09/05 04:54:12;;;;;;;15.25;8.68;;;14.00;86.70;;;;;;5014498;28;20022;-81
2021/09/05 04:56:38;;;;;;;17.73;8.43;;;14.00;86.80;;;;;;5014888;28;20045;-80
2021/09/05 04:59:04;;;;;;;14.52;8.77;;;14.00;87.50;;;;;;4996930;28;20034;-79
2021/09/05 05:01:29;;;;;;;17.52;9.73;;;14.00;86.90;;;;;;5013396;28;20034;-80
2021/09/05 05:03:55;;;;;;;15.20;8.75;;;14.00;87.20;;;;;;5014442;28;20033;-80
2021/09/05 05:06:21;;;;;;;18.45;9.30;;;14.00;87.20;;;;;;5014378;28;20037;-81
2021/09/05 05:08:47;;;;;;;24.05;10.30;;;14.00;87.10;;;;;;5013228;28;20394;-80
2021/09/05 05:11:14;;;;;;;19.40;10.07;;;13.90;87.20;;;;;;5013127;28;20036;-79
2021/09/05 05:13:39;;;;;;;19.50;10.20;;;13.90;87.50;;;;;;5013132;28;20033;-81
2021/09/05 05:16:05;;;;;;;20.73;10.32;;;13.90;87.50;;;;;;4996742;28;20038;-81
2021/09/05 05:18:31;;;;;;;18.17;9.70;;;13.90;87.70;;;;;;5012974;28;20033;-80
2021/09/05 05:20:57;;;;;;;19.13;9.65;;;13.80;87.90;;;;;;5013032;28;20046;-82
2021/09/05 05:23:25;;;;;;;19.42;9.88;;;13.90;88.80;;;;;;5014403;28;20060;-82
2021/09/05 05:25:51;;;;;;;17.40;9.77;;;13.90;88.30;;;;;;5014078;28;20481;-81
2021/09/05 05:28:17;;;;;;;18.85;10.18;;;13.80;88.30;;;;;;5014048;28;20534;-81
2021/09/05 05:30:43;;;;;;;23.52;10.88;;;13.80;88.40;;;;;;5014069;28;20054;-82
2021/09/05 05:33:08;;;;;;;17.77;10.07;;;13.80;88.50;;;;;;5013899;28;20034;-82
2021/09/05 05:35:34;;;;;;;19.73;10.27;;;13.80;88.50;;;;;;5012392;28;20040;-81
2021/09/05 05:37:59;;;;;;;22.20;10.70;;;13.80;88.70;;;;;;5012795;28;20037;-81
2021/09/05 05:40:25;;;;;;;19.35;9.77;;;13.80;89.00;;;;;;5012729;28;20034;-81
2021/09/05 05:42:52;;;;;;;20.65;10.57;;;13.80;88.90;;;;;;5012660;28;20501;-81
2021/09/05 05:45:18;;;;;;;20.30;10.95;;;13.90;89.10;;;;;;5012241;28;20030;-82
2021/09/05 05:47:46;;;;;;;23.25;11.60;;;13.80;89.20;;;;;;5012448;28;20033;-81
2021/09/05 05:50:12;;;;;;;21.10;10.77;;;13.80;89.10;;;;;;5025590;28;20026;-82
2021/09/05 05:52:39;;;;;;;19.67;10.30;;;13.80;89.30;;;;;;5013544;28;20401;-81
2021/09/05 05:55:05;;;;;;;19.27;10.65;;;13.80;89.30;;;;;;5013377;28;20030;-82
2021/09/05 05:57:31;;;;;;;17.98;9.40;;;13.80;89.20;;;;;;5012609;28;20033;-82
2021/09/05 05:59:57;;;;;;;20.77;10.48;;;13.90;89.30;;;;;;4995982;28;20052;-83
2021/09/05 06:02:22;;;;;;;18.75;9.70;;;13.90;89.50;;;;;;4996406;28;20034;-83
2021/09/05 06:04:48;;;;;;;19.77;9.85;;;13.90;89.50;;;;;;4995959;28;20125;-84
2021/09/05 06:07:14;;;;;;;19.88;9.93;;;13.90;89.60;;;;;;5012581;28;20050;-85
2021/09/05 06:09:41;;;;;;;18.88;9.63;;;13.90;89.70;;;;;;5012440;28;20038;-82
2021/09/05 06:12:07;;;;;;;18.65;10.18;;;14.00;89.80;;;;;;5012371;28;20446;-82
2021/09/05 06:14:33;;;;;;;17.55;9.90;;;13.90;89.90;;;;;;4995987;28;20474;-81
2021/09/05 06:16:59;;;;;;;20.65;10.05;;;14.00;90.00;;;;;;5013477;28;20098;-82
2021/09/05 06:19:25;;;;;;;17.73;9.27;;;14.00;90.00;;;;;;4996007;28;20137;-82
2021/09/05 06:21:50;;;;;;;16.63;9.43;;;14.10;90.00;;;;;;5013111;28;20405;-86
2021/09/05 06:24:16;;;;;;;15.30;8.70;;;14.00;90.00;;;;;;4996215;28;20532;-83
2021/09/05 06:26:41;;;;;;;15.27;8.05;;;14.10;90.00;;;;;;5012308;28;20030;-80
2021/09/05 06:29:07;;;;;;;20.02;9.50;;;14.10;90.00;;;;;;4996038;28;20129;-81
2021/09/05 06:31:33;;;;;;;18.00;9.00;;;14.00;90.00;;;;;;5014825;28;20030;-81
2021/09/05 06:33:59;;;;;;;17.58;8.85;;;14.20;90.00;;;;;;4999998;28;20038;-80
2021/09/05 06:36:24;;;;;;;16.63;9.07;;;14.20;90.00;;;;;;5000155;28;20041;-80
2021/09/05 06:38:50;;;;;;;16.88;9.30;;;14.30;90.00;;;;;;5016849;28;20113;-80
2021/09/05 06:41:15;;;;;;;17.38;9.00;;;14.30;90.00;;;;;;5032669;28;20105;-80
2021/09/05 06:43:41;;;;;;;16.48;9.25;;;14.40;90.00;;;;;;5032248;28;20478;-79
2021/09/05 06:46:07;;;;;;;17.90;8.38;;;14.40;90.00;;;;;;5015691;28;20184;-80
2021/09/05 06:48:32;;;;;;;15.63;9.35;;;14.40;89.90;;;;;;5015808;28;20025;-80
2021/09/05 06:50:58;;;;;;;20.17;9.18;;;14.50;90.00;;;;;;5032168;28;20034;-80
2021/09/05 06:53:24;;;;;;;17.73;8.60;;;14.50;89.80;;;;;;5035458;28;20029;-81
2021/09/05 06:55:52;;;;;;;19.60;9.18;;;14.50;89.70;;;;;;5036637;28;20136;-80
2021/09/05 06:58:18;;;;;;;16.58;8.00;;;14.60;89.60;;;;;;5023443;28;20044;-80
2021/09/05 07:00:43;;;;;;;17.67;8.45;;;14.60;89.40;;;;;;5016681;28;20034;-79
2021/09/05 07:03:09;;;;;;;12.73;7.10;;;14.60;89.40;;;;;;5020511;28;20429;-81
2021/09/05 07:05:35;;;;;;;18.42;8.00;;;14.70;89.40;;;;;;5015313;28;20398;-82
2021/09/05 07:08:00;;;;;;;16.55;9.07;;;14.70;89.20;;;;;;5014918;28;20026;-79
2021/09/05 07:10:26;;;;;;;20.27;8.57;;;14.80;89.00;;;;;;4995774;28;20114;-81
2021/09/05 07:12:52;;;;;;;15.43;7.35;;;14.80;88.90;;;;;;4995703;28;20026;-82
2021/09/05 07:15:18;;;;;;;15.70;7.20;;;14.80;88.80;;;;;;4996749;28;20031;-78
2021/09/05 07:17:44;;;;;;;15.18;8.02;;;14.90;88.70;;;;;;4996778;28;20030;-83
2021/09/05 07:20:10;;;;;;;14.90;7.75;;;15.00;88.60;;;;;;5000530;28;20052;-82
2021/09/05 07:22:36;;;;;;;14.70;7.35;;;15.00;88.50;;;;;;5016537;28;20034;-80
2021/09/05 07:25:02;;;;;;;17.92;7.55;;;15.00;88.30;;;;;;5016169;28;20112;-81
2021/09/05 07:27:29;;;;;;;16.33;7.72;;;15.00;88.00;;;;;;5015860;28;20030;-83
2021/09/05 07:29:55;;;;;;;16.70;7.75;;;15.10;88.40;;;;;;5015489;28;20030;-81
2021/09/05 07:32:21;;;;;;;12.00;6.38;;;15.20;87.60;;;;;;4998868;28;20081;-85
2021/09/05 07:34:48;;;;;;;12.88;6.28;;;15.20;87.30;;;;;;5000212;28;20034;-83
2021/09/05 07:37:14;;;;;;;13.30;6.88;;;15.30;87.10;;;;;;5015830;28;20084;-80
2021/09/05 07:39:40;;;;;;;10.50;6.15;;;15.30;86.90;;;;;;5019532;28;20041;-81
2021/09/05 07:42:06;;;;;;;16.55;6.47;;;15.40;86.80;;;;;;5027933;28;20112;-79
2021/09/05 07:44:32;;;;;;;15.38;6.60;;;15.40;86.70;;;;;;5017029;28;20053;-81
2021/09/05 07:46:59;;;;;;;12.57;6.10;;;15.50;86.40;;;;;;5032352;28;20084;-84
2021/09/05 07:49:25;;;;;;;13.40;6.32;;;15.60;86.20;;;;;;4999383;28;20091;-80
2021/09/05 07:51:51;;;;;;;12.73;6.30;;;15.60;86.00;;;;;;5016299;28;20421;-81
2021/09/05 07:54:16;;;;;;;13.05;6.78;;;15.60;86.30;;;;;;5015261;28;20037;-80
2021/09/05 07:56:42;;;;;;;14.20;7.20;;;15.70;86.20;;;;;;5014667;28;20044;-82
2021/09/05 07:59:08;;;;;;;13.55;6.65;;;15.70;85.40;;;;;;5014498;28;20036;-79
2021/09/05 08:01:34;;;;;;;13.10;7.45;;;15.80;85.20;;;;;;5015785;28;20038;-79
2021/09/05 08:04:01;;;;;;;14.45;6.75;;;15.80;85.00;;;;;;5015316;28;20483;-86
2021/09/05 08:06:26;;;;;;;11.65;7.15;;;15.90;84.80;;;;;;4998131;28;20021;-79
2021/09/05 08:08:52;;;;;;;12.25;6.32;;;15.90;84.50;;;;;;5014463;28;20088;-81
2021/09/05 08:11:18;;;;;;;10.43;6.35;;;16.00;84.40;;;;;;5049316;28;20061;-80
2021/09/05 08:13:44;;;;;;;13.75;7.28;;;16.00;84.30;;;;;;5033997;28;20027;-82
2021/09/05 08:16:10;;;;;;;14.23;7.18;;;16.10;84.30;;;;;;5015409;28;20038;-80
2021/09/05 08:18:37;;;;;;;17.50;7.88;;;16.10;84.10;;;;;;5015714;28;20061;-81
2021/09/05 08:21:04;;;;;;;13.35;6.93;;;16.20;83.90;;;;;;5013908;28;20095;-80
2021/09/05 08:23:30;;;;;;;14.50;6.55;;;16.30;83.80;;;;;;4997735;28;20037;-87
2021/09/05 08:25:56;;;;;;;14.25;7.35;;;16.30;83.60;;;;;;4980970;28;20030;-82
2021/09/05 08:28:22;;;;;;;16.75;7.00;;;16.40;83.40;;;;;;4997207;28;20029;-81
2021/09/05 08:30:48;;;;;;;15.63;7.32;;;16.40;83.30;;;;;;4997373;28;20029;-81
2021/09/05 08:33:15;;;;;;;12.45;6.55;;;16.50;83.10;;;;;;4997197;28;20029;-83
2021/09/05 08:35:41;;;;;;;13.02;6.65;;;16.50;82.90;;;;;;5015075;28;20112;-83
2021/09/05 08:38:08;;;;;;;13.80;7.25;;;16.60;82.90;;;;;;4997428;28;20061;-80
2021/09/05 08:40:39;;;;;;;13.30;6.55;;;16.70;82.90;;;;;;4997465;28;20121;-80
2021/09/05 08:43:04;;;;;;;15.50;7.15;;;16.80;82.80;;;;;;5014600;28;20040;-83
2021/09/05 08:45:31;;;;;;;13.85;6.40;;;16.90;82.70;;;;;;4997197;28;20482;-81
2021/09/05 08:47:59;;;;;;;13.65;6.93;;;17.00;82.70;;;;;;5013190;28;20026;-82
2021/09/05 08:50:25;;;;;;;12.98;6.20;;;17.00;82.60;;;;;;5014529;28;20026;-81
2021/09/05 08:52:51;;;;;;;13.18;6.32;;;17.10;82.40;;;;;;5013635;28;20034;-79
2021/09/05 08:55:17;;;;;;;14.02;5.97;;;17.20;82.00;;;;;;5014255;28;20038;-80
2021/09/05 08:57:43;;;;;;;12.68;5.90;;;17.30;81.70;;;;;;5013211;28;20033;-79
2021/09/05 09:00:09;;;;;;;13.07;6.72;;;17.30;81.30;;;;;;4996860;28;20124;-79
2021/09/05 09:02:55;;;;;;;14.77;6.47;;;17.40;81.20;;;;;;5014125;28;20061;-84
2021/09/05 09:05:37;;;;;;;13.90;7.43;;;17.50;80.90;;;;;;5009789;28;20045;-79
2021/09/05 09:08:08;;;;;;;12.57;6.55;;;17.60;80.80;;;;;;4994793;28;20026;-80
2021/09/05 09:10:45;;;;;;;15.55;7.05;;;17.70;80.50;;;;;;4993498;28;20034;-86
2021/09/05 09:13:37;;;;;;;10.55;6.28;;;17.80;80.20;;;;;;4994915;28;20467;-79
2021/09/05 09:16:09;;;;;;;12.70;6.63;;;17.90;80.10;;;;;;4994607;28;20434;-80
2021/09/05 09:18:36;;;;;;;12.65;5.68;;;18.00;80.00;;;;;;4993439;28;20368;-83
2021/09/05 09:21:06;;;;;;;14.55;6.72;;;18.00;79.30;;;;;;5009523;28;20046;-79
2021/09/05 09:23:33;;;;;;;13.77;6.60;;;18.20;79.00;;;;;;5020103;28;20024;-78
2021/09/05 09:26:13;;;;;;;12.07;5.88;;;18.20;78.60;;;;;;5033715;28;20037;-79
2021/09/05 09:28:47;;;;;;;10.18;5.35;;;18.30;78.30;;;;;;5015311;28;20071;-79
2021/09/05 09:31:16;;;;;;;13.02;6.88;;;18.40;78.10;;;;;;5012470;28;20028;-78
2021/09/05 09:33:44;;;;;;;10.52;5.97;;;18.60;78.00;;;;;;5013785;28;20492;-79
2021/09/05 09:36:13;;;;;;;12.27;6.25;;;18.60;77.80;;;;;;5014487;28;20477;-78
2021/09/05 09:38:42;;;;;;;12.43;6.70;;;18.70;77.60;;;;;;5013797;28;20479;-77
2021/09/05 09:41:11;;;;;;;12.95;6.72;;;18.80;77.20;;;;;;5013478;28;20378;-77
2021/09/05 09:43:54;;;;;;;12.65;6.82;;;18.90;76.90;;;;;;5012427;28;20022;-77
2021/09/05 09:46:23;;;;;;;12.77;7.13;;;19.00;76.70;;;;;;5013608;28;20025;-77
2021/09/05 09:48:51;;;;;;;12.95;6.70;;;19.10;76.50;;;;;;5012427;28;20033;-78
2021/09/05 09:51:17;;;;;;;11.38;6.15;;;19.10;76.10;;;;;;5026233;28;20022;-78
2021/09/05 09:53:44;;;;;;;10.73;6.28;;;19.30;75.90;;;;;;4997750;28;20034;-78
2021/09/05 09:56:13;;;;;;;13.23;6.40;;;19.30;75.80;;;;;;5013608;28;20033;-77
2021/09/05 09:58:39;;;;;;;9.73;5.38;;;19.40;75.60;;;;;;4996423;28;20437;-77
2021/09/05 10:01:05;;;;;;;13.35;6.60;;;19.50;75.30;;;;;;5012156;28;20033;-77
2021/09/05 10:03:32;;;;;;;13.07;6.78;;;19.60;74.90;;;;;;5012275;28;20077;-77
2021/09/05 10:06:00;;;;;;;11.23;5.47;;;19.70;74.80;;;;;;5013344;28;20396;-77
2021/09/05 10:08:27;;;;;;;12.95;6.78;;;19.90;74.50;;;;;;5032763;28;20053;-77
2021/09/05 10:10:57;;;;;;;12.95;6.22;;;20.10;73.80;;;;;;5016396;28;20024;-79
2021/09/05 10:13:29;;;;;;;11.90;6.32;;;20.50;73.10;;;;;;5016000;28;20014;-78
2021/09/05 10:15:55;;;;;;;10.45;5.93;;;20.90;72.70;;;;;;5017523;28;20425;-77
2021/09/05 10:18:21;;;;;;;12.88;5.60;;;21.30;72.40;;;;;;5017375;28;20018;-77
2021/09/05 10:20:47;;;;;;;9.70;5.05;;;21.90;72.10;;;;;;5016001;28;20054;-77
2021/09/05 10:23:13;;;;;;;10.57;4.95;;;22.50;72.20;;;;;;5016135;28;20109;-77
2021/09/05 10:25:39;;;;;;;10.15;4.90;;;23.10;71.80;;;;;;5016119;28;20161;-77
2021/09/05 10:28:05;;;;;;;9.45;5.18;;;23.90;70.80;;;;;;5017479;28;20034;-78
2021/09/05 10:30:31;;;;;;;8.45;5.07;;;24.70;69.10;;;;;;5015825;28;20164;-80
2021/09/05 10:32:59;;;;;;;10.27;4.90;;;25.50;66.60;;;;;;5015886;28;20046;-79
2021/09/05 10:35:47;;;;;;;8.35;4.90;;;26.20;65.10;;;;;;5015895;28;20026;-78
2021/09/05 10:38:26;;;;;;;10.30;4.72;;;27.10;61.80;;;;;;5015938;28;20075;-79
2021/09/05 10:41:00;;;;;;;8.10;4.72;;;27.80;61.20;;;;;;5015799;28;20026;-78
2021/09/05 10:43:48;;;;;;;7.55;3.95;;;28.40;58.50;;;;;;5015527;28;20045;-78
2021/09/05 10:46:17;;;;;;;7.68;4.97;;;29.20;56.40;;;;;;5016729;28;20055;-80
2021/09/05 10:48:49;;;;;;;6.85;4.63;;;29.70;55.90;;;;;;5015639;28;20066;-80
2021/09/05 10:51:21;;;;;;;5.97;4.20;;;30.30;54.10;;;;;;4999468;28;20030;-79
2021/09/05 10:53:51;;;;;;;9.30;4.33;;;30.80;52.40;;;;;;5016935;28;20061;-80
2021/09/05 10:56:24;;;;;;;6.47;4.63;;;31.20;51.90;;;;;;5017020;28;20629;-78
2021/09/05 10:58:57;;;;;;;6.25;4.15;;;31.60;50.40;;;;;;5015681;28;20113;-78
2021/09/05 11:01:29;;;;;;;6.60;4.28;;;32.00;48.90;;;;;;5015109;28;20448;-77
2021/09/05 11:04:10;;;;;;;8.05;4.18;;;32.30;48.30;;;;;;5016579;28;20029;-77
2021/09/05 11:06:37;;;;;;;6.88;3.90;;;32.20;46.80;;;;;;5015538;28;20036;-78
2021/09/05 11:09:21;;;;;;;5.25;3.58;;;31.90;47.00;;;;;;5016982;28;20114;-77
2021/09/05 11:12:03;;;;;;;7.03;4.22;;;31.70;46.00;;;;;;5016521;28;20080;-77
2021/09/05 11:14:34;;;;;;;7.13;4.05;;;31.50;45.60;;;;;;5017194;28;20052;-78
2021/09/05 11:17:10;;;;;;;6.10;3.95;;;31.30;45.30;;;;;;5016036;28;20101;-77
2021/09/05 11:20:10;;;;;;;7.63;4.32;;;31.20;45.60;;;;;;5016299;28;20169;-77
2021/09/05 11:22:42;;;;;;;6.57;3.90;;;31.10;44.10;;;;;;5015051;28;20021;-77
2021/09/05 11:25:08;;;;;;;6.53;4.40;;;31.00;44.00;;;;;;5014805;28;20037;-77
2021/09/05 11:27:34;;;;;;;6.35;4.15;;;30.90;43.80;;;;;;5014881;28;20029;-76
2021/09/05 11:30:05;;;;;;;7.85;3.78;;;30.90;44.20;;;;;;5016052;28;20100;-77
2021/09/05 11:32:31;;;;;;;7.70;4.00;;;30.90;43.10;;;;;;5014655;28;20088;-77
2021/09/05 11:34:57;;;;;;;7.80;4.40;;;31.00;43.10;;;;;;4999052;28;20034;-77
2021/09/05 11:37:34;;;;;;;6.95;4.07;;;31.00;43.00;;;;;;5014757;28;20026;-77
2021/09/05 11:40:08;;;;;;;8.07;4.30;;;31.00;42.50;;;;;;5015012;28;20052;-77
2021/09/05 11:42:35;;;;;;;9.63;5.13;;;31.10;42.40;;;;;;5014788;28;20026;-77
2021/09/05 11:45:06;;;;;;;8.35;4.30;;;31.20;42.20;;;;;;5015801;28;20030;-77
2021/09/05 11:47:32;;;;;;;6.32;3.80;;;31.20;42.10;;;;;;5014551;28;20029;-77
2021/09/05 11:49:59;;;;;;;6.32;4.28;;;31.30;42.20;;;;;;5014543;28;20411;-78
2021/09/05 11:52:30;;;;;;;7.70;4.35;;;31.40;42.20;;;;;;5014382;28;20061;-77
2021/09/05 11:55:00;;;;;;;6.90;4.25;;;31.50;41.80;;;;;;5014191;28;20133;-76
2021/09/05 11:57:25;;;;;;;8.35;4.38;;;31.70;41.40;;;;;;5014246;28;20026;-77
2021/09/05 11:59:56;;;;;;;8.45;4.68;;;31.70;41.10;;;;;;5014300;28;20057;-77
2021/09/05 12:02:30;;;;;;;7.55;4.45;;;31.80;40.90;;;;;;5015028;28;20359;-76
2021/09/05 12:04:57;;;;;;;8.70;3.95;;;32.00;40.80;;;;;;5015460;28;20036;-79
2021/09/05 12:07:23;;;;;;;8.18;4.82;;;32.00;40.70;;;;;;5014181;28;20390;-82
2021/09/05 12:10:03;;;;;;;6.90;4.32;;;32.10;40.60;;;;;;5013852;28;20355;-78
2021/09/05 12:12:29;;;;;;;7.45;3.95;;;32.20;40.10;;;;;;5014992;28;20026;-85
2021/09/05 12:14:55;;;;;;;7.18;4.50;;;32.40;40.30;;;;;;5013918;28;20390;-80
2021/09/05 12:17:28;;;;;;;6.25;3.50;;;32.50;40.00;;;;;;5013696;28;20030;-87
2021/09/05 12:20:02;;;;;;;7.15;4.28;;;32.70;39.70;;;;;;5015040;28;20061;-79
2021/09/05 12:22:43;;;;;;;6.63;4.38;;;32.80;39.80;;;;;;5015360;28;20351;-82
2021/09/05 12:25:14;;;;;;;6.97;4.45;;;33.00;39.20;;;;;;5013848;28;20601;-85
2021/09/05 12:27:40;;;;;;;6.05;4.05;;;33.10;39.30;;;;;;5015343;28;20065;-85
2021/09/05 12:30:32;;;;;;;7.57;4.50;;;33.20;39.20;;;;;;5013248;28;20034;-80
2021/09/05 12:33:15;;;;;;;8.55;4.90;;;33.40;38.60;;;;;;5010276;28;20030;-79
2021/09/05 12:35:46;;;;;;;6.40;3.65;;;33.60;38.50;;;;;;4995352;28;20769;-78
2021/09/05 12:38:14;;;;;;;7.35;3.92;;;33.60;38.40;;;;;;4995316;28;20026;-79
2021/09/05 12:40:45;;;;;;;7.90;4.68;;;33.70;38.50;;;;;;4995091;28;20055;-78